createdAt,value
2023-05-24T00:00:15.521Z,20.68
2023-05-24T00:02:52.648Z,20.71
2023-05-24T00:05:27.599Z,20.68
2023-05-24T00:08:02.895Z,20.64
2023-05-24T00:10:34.733Z,20.58
2023-05-24T00:13:07.859Z,20.55
2023-05-24T00:15:39.168Z,20.52
2023-05-24T00:18:12.145Z,20.46
2023-05-24T00:20:45.292Z,20.42
2023-05-24T00:23:20.647Z,20.35
2023-05-24T00:25:53.208Z,20.34
2023-05-24T00:28:25.495Z,20.31
2023-05-24T00:30:59.214Z,20.34
2023-05-24T00:33:32.822Z,20.26
2023-05-24T00:36:09.485Z,20.25
2023-05-24T00:38:45.363Z,20.26
2023-05-24T00:41:18.228Z,20.29
2023-05-24T00:43:51.460Z,20.25
2023-05-24T00:46:32.439Z,20.26
2023-05-24T00:49:06.804Z,20.18
2023-05-24T00:51:39.409Z,20.17
2023-05-24T00:54:11.399Z,20.11
2023-05-24T00:56:46.887Z,20.10
2023-05-24T00:59:18.509Z,20.03
2023-05-24T01:01:52.518Z,19.98
2023-05-24T01:04:24.365Z,19.94
2023-05-24T01:07:22.269Z,19.95
2023-05-24T01:10:20.056Z,19.93
2023-05-24T01:13:11.544Z,19.83
2023-05-24T01:15:52.543Z,19.77
2023-05-24T01:18:38.359Z,19.73
2023-05-24T01:21:29.172Z,19.70
2023-05-24T01:24:27.893Z,19.69
2023-05-24T01:27:15.584Z,19.60
2023-05-24T01:29:55.526Z,19.50
2023-05-24T01:32:28.040Z,19.50
2023-05-24T01:35:01.849Z,19.50
2023-05-24T01:37:32.631Z,19.42
2023-05-24T01:40:04.833Z,19.46
2023-05-24T01:42:45.039Z,19.39
2023-05-24T01:45:22.309Z,19.37
2023-05-24T01:48:20.676Z,19.36
2023-05-24T01:50:58.182Z,19.30
2023-05-24T01:53:35.201Z,19.29
2023-05-24T01:56:09.151Z,19.24
2023-05-24T01:58:48.909Z,19.33
2023-05-24T02:01:20.035Z,19.39
2023-05-24T02:03:53.756Z,19.36
2023-05-24T02:06:28.653Z,19.30
2023-05-24T02:09:00.172Z,19.29
2023-05-24T02:11:43.820Z,19.26
2023-05-24T02:14:20.153Z,19.26
2023-05-24T02:16:53.856Z,19.34
2023-05-24T02:19:24.776Z,19.39
2023-05-24T02:21:57.445Z,19.47
2023-05-24T02:24:34.777Z,19.50
2023-05-24T02:27:06.758Z,19.52
2023-05-24T02:29:40.886Z,19.60
2023-05-24T02:32:12.874Z,19.62
2023-05-24T02:34:45.086Z,19.66
2023-05-24T02:37:16.804Z,19.71
2023-05-24T02:39:47.354Z,19.70
2023-05-24T02:42:18.721Z,19.71
2023-05-24T02:44:51.169Z,19.71
2023-05-24T02:47:24.404Z,19.77
2023-05-24T02:49:58.000Z,19.77
2023-05-24T02:52:30.172Z,19.71
2023-05-24T02:55:02.397Z,19.71
2023-05-24T02:57:36.702Z,19.64
2023-05-24T03:00:12.558Z,19.56
2023-05-24T03:02:44.879Z,19.54
2023-05-24T03:05:15.636Z,19.50
2023-05-24T03:07:47.895Z,19.53
2023-05-24T03:10:19.892Z,19.53
2023-05-24T03:12:51.325Z,19.50
2023-05-24T03:15:23.718Z,19.46
2023-05-24T03:17:55.674Z,19.47
2023-05-24T03:20:27.833Z,19.40
2023-05-24T03:22:59.333Z,19.40
2023-05-24T03:25:29.929Z,19.34
2023-05-24T03:28:01.546Z,19.33
2023-05-24T03:30:33.107Z,19.32
2023-05-24T03:33:04.877Z,19.32
2023-05-24T03:35:35.920Z,19.26
2023-05-24T03:38:06.786Z,19.26
2023-05-24T03:40:41.065Z,19.24
2023-05-24T03:43:21.375Z,19.26
2023-05-24T03:45:59.731Z,19.20
2023-05-24T03:48:30.392Z,19.22
2023-05-24T03:51:02.558Z,19.19
2023-05-24T03:53:34.851Z,19.24
2023-05-24T03:56:06.067Z,19.24
2023-05-24T03:58:38.356Z,19.19
2023-05-24T04:01:12.628Z,19.19
2023-05-24T04:03:48.501Z,19.19
2023-05-24T04:06:19.554Z,19.13
2023-05-24T04:08:51.043Z,19.13
2023-05-24T04:11:23.549Z,19.03
2023-05-24T04:13:54.847Z,19.00
2023-05-24T04:16:27.642Z,19.02
2023-05-24T04:19:00.576Z,19.00
2023-05-24T04:21:33.161Z,18.99
2023-05-24T04:24:05.675Z,19.03
2023-05-24T04:26:36.705Z,19.10
2023-05-24T04:29:07.989Z,19.15
2023-05-24T04:31:40.239Z,19.18
2023-05-24T04:34:12.205Z,19.22
2023-05-24T04:36:42.916Z,19.22
2023-05-24T04:39:15.266Z,19.22
2023-05-24T04:41:48.006Z,19.13
2023-05-24T04:44:19.915Z,19.08
2023-05-24T04:46:51.726Z,19.05
2023-05-24T04:49:22.125Z,19.03
2023-05-24T04:51:54.006Z,18.99
2023-05-24T04:54:27.272Z,19.02
2023-05-24T04:56:58.431Z,19.00
2023-05-24T04:59:29.987Z,19.00
2023-05-24T05:02:00.567Z,18.96
2023-05-24T05:04:30.859Z,18.94
2023-05-24T05:07:02.429Z,18.95
2023-05-24T05:09:34.121Z,18.95
2023-05-24T05:12:05.603Z,18.94
2023-05-24T05:14:36.941Z,18.94
2023-05-24T05:17:08.479Z,18.88
2023-05-24T05:19:39.785Z,18.89
2023-05-24T05:22:11.196Z,18.87
2023-05-24T05:24:41.657Z,18.78
2023-05-24T05:27:13.469Z,18.82
2023-05-24T05:29:44.894Z,18.89
2023-05-24T05:32:16.917Z,18.87
2023-05-24T05:34:47.935Z,18.92
2023-05-24T05:37:19.821Z,18.95
2023-05-24T05:39:51.367Z,18.96
2023-05-24T05:42:22.813Z,18.96
2023-05-24T05:44:56.163Z,19.06
2023-05-24T05:47:28.992Z,19.03
2023-05-24T05:50:00.263Z,19.03
2023-05-24T05:52:31.240Z,18.99
2023-05-24T05:55:03.101Z,18.99
2023-05-24T05:57:33.973Z,18.96
2023-05-24T06:00:06.148Z,19.02
2023-05-24T06:02:43.396Z,18.96
2023-05-24T06:05:17.537Z,18.96
2023-05-24T06:07:50.054Z,18.95
2023-05-24T06:10:24.622Z,18.89
2023-05-24T06:12:55.640Z,18.92
2023-05-24T06:15:26.298Z,18.91
2023-05-24T06:17:57.439Z,18.89
2023-05-24T06:20:30.137Z,18.88
2023-05-24T06:23:04.464Z,18.89
2023-05-24T06:25:36.785Z,18.92
2023-05-24T06:28:11.596Z,18.88
2023-05-24T06:30:43.679Z,18.75
2023-05-24T06:33:14.964Z,18.82
2023-05-24T06:35:47.684Z,18.84
2023-05-24T06:38:20.073Z,18.85
2023-05-24T06:40:52.275Z,18.85
2023-05-24T06:43:23.339Z,18.85
2023-05-24T06:45:56.461Z,18.84
2023-05-24T06:48:28.042Z,18.79
2023-05-24T06:50:59.292Z,18.79
2023-05-24T06:53:30.592Z,18.73
2023-05-24T06:56:02.652Z,18.76
2023-05-24T06:58:33.702Z,18.75
2023-05-24T07:01:08.714Z,18.79
2023-05-24T07:03:41.465Z,18.76
2023-05-24T07:06:17.122Z,18.73
2023-05-24T07:08:50.075Z,18.73
2023-05-24T07:11:21.602Z,18.75
2023-05-24T07:13:54.050Z,18.69
2023-05-24T07:16:26.623Z,18.69
2023-05-24T07:19:04.734Z,18.65
2023-05-24T07:21:36.587Z,18.62
2023-05-24T07:24:07.462Z,18.58
2023-05-24T07:26:38.924Z,18.55
2023-05-24T07:29:11.721Z,18.49
2023-05-24T07:31:43.655Z,18.49
2023-05-24T07:34:15.177Z,18.52
2023-05-24T07:36:48.474Z,18.59
2023-05-24T07:39:21.183Z,18.67
2023-05-24T07:41:52.359Z,18.71
2023-05-24T07:44:22.850Z,18.75
2023-05-24T07:47:00.352Z,18.78
2023-05-24T07:49:31.105Z,18.79
2023-05-24T07:52:02.596Z,18.78
2023-05-24T07:54:34.425Z,18.79
2023-05-24T07:57:06.685Z,18.79
2023-05-24T07:59:39.839Z,18.85
2023-05-24T08:02:14.593Z,18.81
2023-05-24T08:04:46.188Z,18.84
2023-05-24T08:07:19.242Z,18.87
2023-05-24T08:09:50.963Z,18.85
2023-05-24T08:12:22.068Z,18.76
2023-05-24T08:14:53.700Z,18.81
2023-05-24T08:17:25.512Z,18.78
2023-05-24T08:19:56.580Z,18.72
2023-05-24T08:22:31.390Z,18.65
2023-05-24T08:25:03.684Z,18.54
2023-05-24T08:27:35.176Z,18.47
2023-05-24T08:30:06.821Z,18.36
2023-05-24T08:32:38.894Z,18.30
2023-05-24T08:35:19.560Z,18.18
2023-05-24T08:37:51.824Z,18.17
2023-05-24T08:40:26.301Z,18.13
2023-05-24T08:43:02.054Z,18.08
2023-05-24T08:45:33.952Z,18.10
2023-05-24T08:48:06.873Z,18.13
2023-05-24T08:50:38.081Z,18.17
2023-05-24T08:53:11.088Z,18.17
2023-05-24T08:55:42.788Z,18.20
2023-05-24T08:58:14.199Z,18.24
2023-05-24T09:00:45.187Z,18.31
2023-05-24T09:03:16.552Z,18.38
2023-05-24T09:05:47.688Z,18.43
2023-05-24T09:08:20.677Z,18.51
2023-05-24T09:10:55.347Z,18.48
2023-05-24T09:13:32.170Z,18.49
2023-05-24T09:16:03.565Z,18.54
2023-05-24T09:18:35.261Z,18.54
2023-05-24T09:21:07.243Z,18.54
2023-05-24T09:23:39.202Z,18.49
2023-05-24T09:26:12.874Z,18.45
2023-05-24T09:28:44.663Z,18.37
2023-05-24T09:31:16.514Z,18.34
2023-05-24T09:33:51.466Z,18.28
2023-05-24T09:36:22.669Z,18.23
2023-05-24T09:39:11.336Z,18.17
2023-05-24T09:41:45.209Z,18.10
2023-05-24T09:44:16.825Z,18.07
2023-05-24T09:46:52.310Z,18.01
2023-05-24T09:49:26.190Z,18.00
2023-05-24T09:51:58.080Z,17.94
2023-05-24T09:54:29.688Z,17.90
2023-05-24T09:57:05.415Z,17.90
2023-05-24T09:59:36.092Z,17.82
2023-05-24T10:02:15.908Z,17.85
2023-05-24T10:04:47.866Z,17.75
2023-05-24T10:07:19.426Z,17.77
2023-05-24T10:09:51.380Z,17.79
2023-05-24T10:12:25.210Z,17.72
2023-05-24T10:14:59.927Z,17.72
2023-05-24T10:20:29.862Z,17.70
2023-05-24T10:23:03.074Z,17.75
2023-05-24T10:25:40.605Z,17.75
2023-05-24T10:28:15.240Z,17.79
2023-05-24T10:31:05.097Z,17.85
2023-05-24T10:33:40.348Z,17.98
2023-05-24T10:36:13.643Z,18.03
2023-05-24T10:38:46.389Z,18.10
2023-05-24T10:41:20.985Z,18.16
2023-05-24T10:44:09.285Z,18.31
2023-05-24T10:47:10.265Z,19.02
2023-05-24T10:49:53.061Z,18.65
2023-05-24T10:52:24.450Z,18.55
2023-05-24T10:55:10.121Z,18.68
2023-05-24T10:57:42.834Z,18.61
2023-05-24T11:03:26.190Z,18.91
2023-05-24T11:05:57.627Z,18.95
2023-05-24T11:08:36.409Z,19.05
2023-05-24T11:11:26.568Z,19.23
2023-05-24T11:14:00.852Z,19.94
2023-05-24T11:16:40.894Z,22.59
2023-05-24T11:19:16.370Z,23.30
2023-05-24T11:21:51.194Z,22.51
2023-05-24T11:24:23.969Z,21.57
2023-05-24T11:26:56.848Z,21.29
2023-05-24T11:29:27.894Z,21.04
2023-05-24T11:32:09.965Z,20.97
2023-05-24T11:34:44.205Z,21.06
2023-05-24T11:37:17.714Z,21.22
2023-05-24T11:39:57.273Z,21.24
2023-05-24T11:42:31.383Z,21.22
2023-05-24T11:45:02.835Z,21.30
2023-05-24T11:47:42.584Z,21.48
2023-05-24T11:50:18.151Z,21.50
2023-05-24T11:52:50.157Z,21.55
2023-05-24T11:55:32.525Z,21.68
2023-05-24T11:58:10.216Z,21.82
2023-05-24T12:00:45.590Z,21.84
2023-05-24T12:03:16.880Z,21.88
2023-05-24T12:05:47.125Z,22.01
2023-05-24T12:08:17.942Z,22.21
2023-05-24T12:10:52.787Z,22.28
2023-05-24T12:13:27.949Z,22.41
2023-05-24T12:15:59.657Z,22.42
2023-05-24T12:18:30.599Z,22.56
2023-05-24T12:21:00.802Z,22.73
2023-05-24T12:23:33.351Z,22.90
2023-05-24T12:26:04.550Z,23.04
2023-05-24T12:28:38.433Z,23.10
2023-05-24T12:31:10.058Z,23.17
2023-05-24T12:33:41.067Z,23.31
2023-05-24T12:36:13.146Z,23.48
2023-05-24T12:38:43.142Z,23.54
2023-05-24T12:41:40.072Z,23.64
2023-05-24T12:44:14.025Z,23.59
2023-05-24T12:46:48.101Z,23.64
2023-05-24T12:52:04.774Z,23.82
2023-05-24T12:54:35.940Z,23.96
2023-05-24T12:57:08.225Z,23.95
2023-05-24T12:59:39.629Z,23.99
2023-05-24T13:02:21.705Z,24.02
2023-05-24T13:05:01.109Z,24.13
2023-05-24T13:07:35.144Z,24.10
2023-05-24T13:10:07.070Z,24.13
2023-05-24T13:12:40.670Z,24.26
2023-05-24T13:15:13.252Z,24.33
2023-05-24T13:17:56.588Z,24.46
2023-05-24T13:20:28.359Z,24.40
2023-05-24T13:23:00.836Z,24.32
2023-05-24T13:25:32.387Z,24.36
2023-05-24T13:28:03.420Z,24.49
2023-05-24T13:30:37.621Z,24.55
2023-05-24T13:33:08.282Z,24.67
2023-05-24T13:35:53.659Z,24.77
2023-05-24T13:38:35.339Z,24.76
2023-05-24T13:41:06.964Z,24.77
2023-05-24T13:46:28.116Z,24.83
2023-05-24T13:49:01.385Z,24.86
2023-05-24T13:51:32.830Z,24.90
2023-05-24T13:54:04.107Z,24.95
2023-05-24T13:56:36.362Z,24.90
2023-05-24T13:59:11.102Z,24.97
2023-05-24T14:01:47.802Z,25.06
2023-05-24T14:04:20.266Z,25.11
2023-05-24T14:06:51.474Z,25.08
2023-05-24T14:09:23.574Z,25.22
2023-05-24T14:11:56.730Z,25.34
2023-05-24T14:17:01.894Z,25.37
2023-05-24T14:19:33.817Z,25.39
2023-05-24T14:22:04.993Z,25.59
2023-05-24T14:24:36.134Z,25.57
2023-05-24T14:27:09.319Z,25.61
2023-05-24T14:29:39.647Z,25.82
2023-05-24T14:32:12.003Z,25.95
2023-05-24T14:34:43.208Z,25.86
2023-05-24T14:37:14.276Z,25.88
2023-05-24T14:39:49.782Z,25.82
2023-05-24T14:42:21.259Z,26.12
2023-05-24T14:44:51.705Z,26.07
2023-05-24T14:47:22.756Z,25.89
2023-05-24T14:49:52.921Z,25.85
2023-05-24T14:52:23.015Z,25.89
2023-05-24T14:54:53.407Z,25.82
2023-05-24T14:57:23.435Z,26.00
2023-05-24T14:59:53.284Z,26.13
2023-05-24T15:02:23.863Z,26.17
2023-05-24T15:04:54.134Z,26.20
2023-05-24T15:07:24.312Z,26.37
2023-05-24T15:09:54.474Z,26.37
2023-05-24T15:12:24.845Z,26.34
2023-05-24T15:14:55.832Z,26.41
2023-05-24T15:17:25.964Z,26.40
2023-05-24T15:19:57.734Z,26.33
2023-05-24T15:22:28.339Z,26.26
2023-05-24T15:24:58.396Z,26.53
2023-05-24T15:27:29.230Z,26.64
2023-05-24T15:30:00.285Z,26.64
2023-05-24T15:32:30.693Z,26.53
2023-05-24T15:35:01.766Z,26.50
2023-05-24T15:37:31.886Z,26.51
2023-05-24T15:40:02.262Z,26.44
2023-05-24T15:42:34.249Z,26.43
2023-05-24T15:45:05.572Z,26.60
2023-05-24T15:47:41.596Z,26.53
2023-05-24T15:50:12.684Z,26.54
2023-05-24T15:52:43.554Z,26.44
2023-05-24T15:55:14.946Z,26.53
2023-05-24T15:57:45.435Z,26.48
2023-05-24T16:00:17.071Z,26.47
2023-05-24T16:02:48.569Z,26.44
2023-05-24T16:05:21.760Z,26.47
2023-05-24T16:07:52.438Z,26.33
2023-05-24T16:10:22.486Z,26.22
2023-05-24T16:12:53.577Z,26.07
2023-05-24T16:15:25.538Z,26.02
2023-05-24T16:17:56.559Z,26.12
2023-05-24T16:20:28.374Z,26.03
2023-05-24T16:23:00.816Z,26.09
2023-05-24T16:25:32.908Z,26.27
2023-05-24T16:28:03.243Z,26.29
2023-05-24T16:30:34.661Z,26.27
2023-05-24T16:33:06.211Z,26.32
2023-05-24T16:35:37.800Z,26.09
2023-05-24T16:38:09.994Z,26.12
2023-05-24T16:40:40.597Z,26.13
2023-05-24T16:43:12.517Z,26.05
2023-05-24T16:45:43.584Z,26.10
2023-05-24T16:48:16.471Z,26.03
2023-05-24T16:50:47.071Z,26.12
2023-05-24T16:53:18.179Z,25.99
2023-05-24T16:56:03.064Z,25.78
2023-05-24T16:58:33.132Z,25.81
2023-05-24T17:01:03.234Z,25.90
2023-05-24T17:03:35.411Z,25.81
2023-05-24T17:06:08.303Z,25.63
2023-05-24T17:08:39.027Z,25.59
2023-05-24T17:11:09.323Z,25.55
2023-05-24T17:13:39.122Z,25.34
2023-05-24T17:16:09.893Z,25.25
2023-05-24T17:18:40.226Z,25.04
2023-05-24T17:21:10.407Z,25.04
2023-05-24T17:23:41.229Z,25.12
2023-05-24T17:26:12.343Z,25.03
2023-05-24T17:28:42.956Z,25.06
2023-05-24T17:31:25.758Z,24.98
2023-05-24T17:33:59.935Z,24.98
2023-05-24T17:36:29.979Z,25.07
2023-05-24T17:38:59.773Z,24.97
2023-05-24T17:41:32.459Z,25.12
2023-05-24T17:44:04.287Z,25.22
2023-05-24T17:46:39.076Z,25.22
2023-05-24T17:49:14.921Z,25.34
2023-05-24T17:51:46.547Z,25.58
2023-05-24T17:54:17.170Z,25.72
2023-05-24T17:56:47.478Z,25.76
2023-05-24T17:59:18.723Z,25.96
2023-05-24T18:01:49.602Z,26.00
2023-05-24T18:04:20.492Z,26.06
2023-05-24T18:06:52.047Z,25.97
2023-05-24T18:09:24.873Z,25.92
2023-05-24T18:11:55.619Z,25.88
2023-05-24T18:14:26.469Z,25.88
2023-05-24T18:16:58.853Z,25.89
2023-05-24T18:19:30.058Z,25.82
2023-05-24T18:22:01.324Z,25.69
2023-05-24T18:24:32.326Z,25.62
2023-05-24T18:27:04.971Z,25.59
2023-05-24T18:29:35.963Z,25.66
2023-05-24T18:32:08.489Z,25.66
2023-05-24T18:34:40.270Z,25.58
2023-05-24T18:37:10.932Z,25.53
2023-05-24T18:39:44.500Z,25.51
2023-05-24T18:42:15.752Z,25.35
2023-05-24T18:44:47.016Z,25.21
2023-05-24T18:47:18.643Z,25.21
2023-05-24T18:49:50.783Z,25.25
2023-05-24T18:52:21.908Z,25.32
2023-05-24T18:54:52.213Z,25.28
2023-05-24T18:57:24.283Z,25.25
2023-05-24T18:59:54.762Z,25.17
2023-05-24T19:02:26.362Z,25.03
2023-05-24T19:04:57.845Z,24.92
2023-05-24T19:07:29.096Z,24.90
2023-05-24T19:10:11.912Z,24.91
2023-05-24T19:12:43.677Z,24.87
2023-05-24T19:15:15.780Z,24.86
2023-05-24T19:17:46.828Z,24.77
2023-05-24T19:20:18.617Z,24.64
2023-05-24T19:22:50.414Z,24.55
2023-05-24T19:25:24.019Z,24.53
2023-05-24T19:27:59.973Z,24.41
2023-05-24T19:30:31.516Z,24.49
2023-05-24T19:33:02.466Z,24.36
2023-05-24T19:35:33.670Z,24.29
2023-05-24T19:38:04.553Z,24.25
2023-05-24T19:40:35.851Z,24.16
2023-05-24T19:43:06.661Z,24.06
2023-05-24T19:45:38.446Z,23.94
2023-05-24T19:48:12.561Z,23.90
2023-05-24T19:50:43.779Z,23.92
2023-05-24T19:53:17.524Z,23.94
2023-05-24T19:55:47.989Z,23.79
2023-05-24T19:58:19.052Z,23.68
2023-05-24T20:00:50.087Z,23.61
2023-05-24T20:03:21.116Z,23.54
2023-05-24T20:05:52.790Z,23.53
2023-05-24T20:08:24.580Z,23.51
2023-05-24T20:10:54.950Z,23.41
2023-05-24T20:13:26.095Z,23.41
2023-05-24T20:15:58.314Z,23.33
2023-05-24T20:18:29.309Z,23.24
2023-05-24T20:21:02.764Z,23.18
2023-05-24T20:23:33.921Z,23.14
2023-05-24T20:26:05.912Z,23.06
2023-05-24T20:28:36.961Z,23.07
2023-05-24T20:31:08.985Z,22.97
2023-05-24T20:33:40.251Z,22.97
2023-05-24T20:36:12.176Z,22.94
2023-05-24T20:38:42.445Z,22.89
2023-05-24T20:41:13.592Z,22.89
2023-05-24T20:43:45.479Z,22.83
2023-05-24T20:46:16.570Z,22.77
2023-05-24T20:48:47.768Z,22.74
2023-05-24T20:51:17.999Z,22.73
2023-05-24T20:53:51.133Z,22.69
2023-05-24T20:56:23.194Z,22.64
2023-05-24T20:59:05.169Z,22.67
2023-05-24T21:01:36.652Z,22.62
2023-05-24T21:06:51.119Z,22.56
2023-05-24T21:09:27.309Z,22.57
2023-05-24T21:11:58.529Z,22.52
2023-05-24T21:14:30.181Z,22.56
2023-05-24T21:17:02.264Z,22.52
2023-05-24T21:19:36.070Z,22.51
2023-05-24T21:22:07.285Z,22.52
2023-05-24T21:24:40.645Z,22.46
2023-05-24T21:27:12.217Z,22.45
2023-05-24T21:29:43.791Z,22.39
2023-05-24T21:32:14.734Z,22.39
2023-05-24T21:34:45.330Z,22.33
2023-05-24T21:37:17.819Z,22.32
2023-05-24T21:39:53.263Z,22.32
2023-05-24T21:42:25.129Z,22.32
2023-05-24T21:44:55.494Z,22.29
2023-05-24T21:47:26.494Z,22.28
2023-05-24T21:49:57.239Z,22.21
2023-05-24T21:52:29.111Z,22.23
2023-05-24T21:55:02.771Z,22.18
2023-05-24T21:57:36.406Z,22.16
2023-05-24T22:00:08.828Z,22.16
2023-05-24T22:02:40.184Z,22.13
2023-05-24T22:05:13.607Z,22.15
2023-05-24T22:07:45.790Z,22.15
2023-05-24T22:10:19.345Z,22.12
2023-05-24T22:12:50.619Z,22.05
2023-05-24T22:15:22.381Z,22.05
2023-05-24T22:17:53.619Z,22.04
2023-05-24T22:20:24.706Z,22.05
2023-05-24T22:22:55.337Z,22.02
2023-05-24T22:25:27.672Z,22.02
2023-05-24T22:28:04.267Z,21.98
2023-05-24T22:30:38.031Z,22.00
2023-05-24T22:33:20.212Z,21.97
2023-05-24T22:36:04.177Z,21.97
2023-05-24T22:38:38.325Z,21.97
2023-05-24T22:41:13.172Z,22.00
2023-05-24T22:43:47.490Z,21.94
2023-05-24T22:46:19.461Z,21.92
2023-05-24T22:48:55.470Z,21.90
2023-05-24T22:51:46.284Z,21.90
2023-05-24T22:54:18.049Z,21.87
2023-05-24T22:56:50.669Z,21.88
2023-05-24T22:59:22.032Z,21.81
2023-05-24T23:01:55.441Z,21.84
2023-05-24T23:04:30.013Z,21.82
2023-05-24T23:07:01.199Z,21.80
2023-05-24T23:09:39.149Z,21.80
2023-05-24T23:12:11.892Z,21.78
2023-05-24T23:14:49.383Z,21.81
2023-05-24T23:17:24.827Z,21.80
2023-05-24T23:19:55.849Z,21.77
2023-05-24T23:22:34.453Z,21.77
2023-05-24T23:25:07.665Z,21.75
2023-05-24T23:27:39.698Z,21.71
2023-05-24T23:30:10.911Z,21.67
2023-05-24T23:32:43.601Z,21.65
2023-05-24T23:35:16.316Z,21.65
2023-05-24T23:40:39.997Z,21.62
2023-05-24T23:43:11.281Z,21.65
2023-05-24T23:45:41.922Z,21.54
2023-05-24T23:48:21.550Z,21.55
2023-05-24T23:50:55.651Z,21.53
2023-05-24T23:53:26.260Z,21.55
2023-05-24T23:55:58.256Z,21.57
2023-05-24T23:58:36.550Z,21.57
